Time;durP1;ratioP1;P1;durP2;ratioP2;P2;SDS_P1;SDS_P2;PMS_P1;PMS_P2;Temp;Humidity;BMP_temperature;BMP_pressure;BME280_temperature;BME280_humidity;BME280_pressure;Samples;Min_cycle;Max_cycle;Signal;HPM_P1;HPM_P2
2022/09/06 00:01:53;;;;;;;2.33;1.75;;;18.50;56.90;;;;;;4924362;29;20035;-71
2022/09/06 00:04:19;;;;;;;6.35;2.03;;;18.50;57.10;;;;;;4926769;29;20048;-71
2022/09/06 00:06:45;;;;;;;3.03;1.60;;;18.50;55.40;;;;;;4926315;29;20028;-71
2022/09/06 00:09:11;;;;;;;7.40;1.63;;;18.50;56.60;;;;;;4923110;29;20902;-71
2022/09/06 00:11:37;;;;;;;3.90;1.48;;;18.40;55.40;;;;;;4923894;29;20050;-71
2022/09/06 00:14:03;;;;;;;4.82;1.73;;;18.40;56.80;;;;;;4922922;29;20544;-71
2022/09/06 00:16:28;;;;;;;6.85;1.92;;;18.40;55.30;;;;;;4921915;29;20030;-70
2022/09/06 00:18:55;;;;;;;4.05;1.58;;;18.40;56.20;;;;;;4917603;29;20135;-71
2022/09/06 00:21:23;;;;;;;3.60;1.50;;;18.40;55.30;;;;;;4927008;29;20809;-70
2022/09/06 00:23:50;;;;;;;3.35;1.60;;;18.30;56.10;;;;;;4926770;29;20037;-71
2022/09/06 00:26:16;;;;;;;3.40;1.52;;;18.30;54.50;;;;;;4924285;29;20055;-71
2022/09/06 00:28:42;;;;;;;2.70;1.60;;;18.30;55.50;;;;;;4924235;29;20110;-71
2022/09/06 00:31:10;;;;;;;5.68;1.70;;;18.20;54.40;;;;;;4920413;29;20649;-71
2022/09/06 00:33:36;;;;;;;2.20;1.27;;;18.20;55.50;;;;;;4921049;29;20122;-71
2022/09/06 00:36:02;;;;;;;4.55;1.48;;;18.20;55.10;;;;;;4918092;29;20071;-71
2022/09/06 00:38:28;;;;;;;1.50;1.25;;;18.20;55.40;;;;;;4916713;29;20110;-70
2022/09/06 00:40:54;;;;;;;3.72;1.30;;;18.20;54.70;;;;;;4922507;29;20127;-70
2022/09/06 00:43:20;;;;;;;1.65;1.33;;;18.20;54.30;;;;;;4925083;29;20048;-70
2022/09/06 00:45:45;;;;;;;3.95;1.42;;;18.10;55.00;;;;;;4926533;29;20032;-70
2022/09/06 00:48:11;;;;;;;5.28;1.73;;;18.10;55.00;;;;;;4921625;29;20040;-70
2022/09/06 00:50:37;;;;;;;1.58;1.20;;;18.10;54.60;;;;;;4922600;29;20028;-70
2022/09/06 00:53:03;;;;;;;2.13;1.48;;;18.10;55.70;;;;;;4918610;29;20712;-68
2022/09/06 00:55:29;;;;;;;1.48;1.15;;;18.10;55.70;;;;;;4920401;28;20181;-69
2022/09/06 00:57:55;;;;;;;3.10;1.40;;;18.00;55.00;;;;;;4919851;29;20032;-69
2022/09/06 01:00:21;;;;;;;3.67;1.02;;;18.00;54.60;;;;;;4925308;29;20039;-69
2022/09/06 01:02:48;;;;;;;3.45;1.40;;;18.00;54.60;;;;;;4924893;29;20123;-68
2022/09/06 01:05:14;;;;;;;3.08;1.40;;;18.00;54.60;;;;;;4923533;29;20367;-69
2022/09/06 01:07:55;;;;;;;4.05;1.30;;;18.00;54.30;;;;;;4925135;29;20703;-69
2022/09/06 01:10:56;;;;;;;2.00;1.27;;;18.00;55.10;;;;;;4921033;29;20036;-70
2022/09/06 01:13:30;;;;;;;1.77;1.27;;;18.00;54.50;;;;;;4919857;29;20715;-69
2022/09/06 01:16:02;;;;;;;1.33;1.05;;;17.90;54.30;;;;;;4920116;29;20115;-69
2022/09/06 01:18:55;;;;;;;3.30;1.15;;;17.90;54.00;;;;;;4922886;29;20067;-70
2022/09/06 01:21:35;;;;;;;4.25;1.45;;;17.90;55.10;;;;;;4924844;29;20086;-69
2022/09/06 01:24:46;;;;;;;1.98;1.02;;;17.80;54.50;;;;;;4922464;29;20095;-68
2022/09/06 01:27:27;;;;;;;1.42;1.10;;;17.80;56.20;;;;;;4928145;29;20449;-69
2022/09/06 01:30:01;;;;;;;5.32;1.17;;;17.80;56.50;;;;;;4919440;29;20173;-69
2022/09/06 01:32:41;;;;;;;4.28;1.25;;;17.80;56.00;;;;;;4919419;29;20024;-70
2022/09/06 01:35:18;;;;;;;2.67;1.50;;;17.80;56.00;;;;;;4920663;29;20044;-69
2022/09/06 01:37:44;;;;;;;4.55;0.98;;;17.70;54.00;;;;;;4925819;29;20506;-69
2022/09/06 01:40:10;;;;;;;2.55;1.25;;;17.60;54.20;;;;;;4924656;28;20047;-69
2022/09/06 01:42:38;;;;;;;6.57;1.13;;;17.60;54.60;;;;;;4923980;29;20174;-69
2022/09/06 01:45:13;;;;;;;1.95;1.17;;;17.60;54.80;;;;;;4921480;29;20408;-70
2022/09/06 01:48:08;;;;;;;3.47;0.90;;;17.60;54.90;;;;;;4920526;29;20031;-69
2022/09/06 01:50:44;;;;;;;2.58;1.17;;;17.60;53.60;;;;;;4918330;29;20042;-70
2022/09/06 01:53:12;;;;;;;1.55;1.05;;;17.60;53.60;;;;;;4917118;29;20095;-70
2022/09/06 01:55:56;;;;;;;0.90;0.70;;;17.60;53.60;;;;;;4926234;29;20063;-71
2022/09/06 01:58:24;;;;;;;1.85;1.10;;;17.60;54.30;;;;;;4924807;29;20114;-70
2022/09/06 02:00:57;;;;;;;2.13;0.95;;;17.70;54.70;;;;;;4922879;29;20066;-70
2022/09/06 02:03:41;;;;;;;3.72;0.80;;;17.60;54.70;;;;;;4923749;29;20038;-70
2022/09/06 02:06:17;;;;;;;2.05;0.80;;;17.60;53.80;;;;;;4918738;29;20142;-70
2022/09/06 02:08:50;;;;;;;4.35;0.77;;;17.70;54.90;;;;;;4919330;29;20028;-69
2022/09/06 02:11:16;;;;;;;3.45;1.00;;;17.70;54.20;;;;;;4917585;29;20075;-71
2022/09/06 02:13:57;;;;;;;4.00;0.93;;;17.70;53.20;;;;;;4921876;29;20024;-70
2022/09/06 02:16:26;;;;;;;3.90;0.90;;;17.60;53.00;;;;;;4924669;29;20028;-70
2022/09/06 02:19:02;;;;;;;2.53;1.10;;;17.60;53.70;;;;;;4923637;29;20074;-70
2022/09/06 02:21:37;;;;;;;1.15;0.60;;;17.60;53.20;;;;;;4925028;29;20107;-70
2022/09/06 02:24:06;;;;;;;4.32;0.70;;;17.60;53.50;;;;;;4919616;29;20076;-69
2022/09/06 02:26:36;;;;;;;1.83;0.98;;;17.60;52.90;;;;;;4920990;28;20067;-70
2022/09/06 02:29:03;;;;;;;1.63;0.90;;;17.60;53.60;;;;;;4916486;29;20072;-69
2022/09/06 02:31:34;;;;;;;1.80;0.90;;;17.60;53.90;;;;;;4919081;29;20031;-70
2022/09/06 02:34:01;;;;;;;1.77;0.77;;;17.50;54.00;;;;;;4924744;29;20040;-69
2022/09/06 02:36:30;;;;;;;3.35;0.85;;;17.50;54.20;;;;;;4924241;29;20039;-70
2022/09/06 02:38:58;;;;;;;1.75;0.60;;;17.50;54.20;;;;;;4922366;29;20027;-70
2022/09/06 02:41:26;;;;;;;2.13;0.98;;;17.50;53.20;;;;;;4921983;29;20114;-71
2022/09/06 02:43:52;;;;;;;4.63;0.63;;;17.50;53.40;;;;;;4919245;29;20035;-70
2022/09/06 02:46:18;;;;;;;2.92;0.80;;;17.50;53.30;;;;;;4922615;29;20040;-70
2022/09/06 02:48:44;;;;;;;1.23;0.77;;;17.40;53.60;;;;;;4917550;29;20754;-69
2022/09/06 02:51:10;;;;;;;1.83;0.47;;;17.40;53.70;;;;;;4919794;29;20146;-69
2022/09/06 02:53:35;;;;;;;1.00;0.60;;;17.40;53.90;;;;;;4924836;29;20027;-70
2022/09/06 02:56:02;;;;;;;1.40;0.60;;;17.40;53.90;;;;;;4922794;29;20031;-69
2022/09/06 02:58:28;;;;;;;3.47;0.85;;;17.30;54.30;;;;;;4922463;29;20404;-69
2022/09/06 03:00:54;;;;;;;3.47;1.45;;;17.30;54.10;;;;;;4922275;29;20063;-71
2022/09/06 03:03:21;;;;;;;6.15;1.27;;;17.30;54.90;;;;;;4923489;29;20135;-69
2022/09/06 03:05:48;;;;;;;0.88;0.60;;;17.20;54.00;;;;;;4918143;29;20093;-69
2022/09/06 03:08:18;;;;;;;2.47;0.85;;;17.20;54.70;;;;;;4917027;29;20040;-70
2022/09/06 03:10:48;;;;;;;2.08;0.70;;;17.10;54.60;;;;;;4921203;29;20035;-69
2022/09/06 03:13:15;;;;;;;1.92;0.70;;;17.10;54.30;;;;;;4923136;29;20048;-69
2022/09/06 03:15:40;;;;;;;5.07;0.80;;;17.00;54.30;;;;;;4923237;29;20039;-69
2022/09/06 03:18:06;;;;;;;2.85;0.73;;;17.00;54.40;;;;;;4921968;29;20060;-70
2022/09/06 03:20:32;;;;;;;0.70;0.60;;;17.00;55.20;;;;;;4920827;29;20023;-69
2022/09/06 03:22:58;;;;;;;2.17;0.80;;;17.00;54.90;;;;;;4917490;29;20036;-71
2022/09/06 03:25:25;;;;;;;1.27;0.80;;;17.00;55.40;;;;;;4918751;29;20579;-69
2022/09/06 03:27:51;;;;;;;1.02;0.70;;;16.90;54.90;;;;;;4915370;29;20036;-69
2022/09/06 03:30:17;;;;;;;2.60;1.17;;;16.90;55.40;;;;;;4923142;29;20115;-68
2022/09/06 03:32:43;;;;;;;2.78;0.70;;;16.90;56.10;;;;;;4923235;29;20024;-69
2022/09/06 03:35:10;;;;;;;1.20;0.70;;;16.90;55.90;;;;;;4922645;29;20084;-70
2022/09/06 03:37:36;;;;;;;4.18;0.80;;;16.90;56.10;;;;;;4923701;28;20079;-69
2022/09/06 03:40:05;;;;;;;3.28;0.70;;;16.80;55.70;;;;;;4917997;29;20040;-71
2022/09/06 03:42:31;;;;;;;1.20;0.77;;;16.80;56.00;;;;;;4919369;29;20024;-71
2022/09/06 03:44:57;;;;;;;2.30;0.90;;;16.80;55.30;;;;;;4915364;29;20040;-70
2022/09/06 03:47:23;;;;;;;1.38;0.75;;;16.80;56.30;;;;;;4917407;29;20743;-71
2022/09/06 03:49:50;;;;;;;1.42;0.70;;;16.80;57.00;;;;;;4924260;29;20063;-69
2022/09/06 03:52:17;;;;;;;2.22;0.70;;;16.80;56.40;;;;;;4922391;29;20036;-69
2022/09/06 03:54:42;;;;;;;2.85;0.90;;;16.80;55.70;;;;;;4922097;29;20528;-70
2022/09/06 03:57:08;;;;;;;1.00;0.80;;;16.70;56.30;;;;;;4919230;29;20054;-68
2022/09/06 03:59:35;;;;;;;1.85;0.65;;;16.80;56.60;;;;;;4919633;29;20507;-68
2022/09/06 04:02:01;;;;;;;2.45;1.00;;;16.70;56.50;;;;;;4915885;29;20511;-69
2022/09/06 04:04:26;;;;;;;2.33;0.70;;;16.70;56.90;;;;;;4919309;29;20050;-69
2022/09/06 04:06:52;;;;;;;2.85;0.70;;;16.60;57.00;;;;;;4921132;29;20039;-69
2022/09/06 04:09:18;;;;;;;1.00;0.57;;;16.70;56.50;;;;;;4923420;29;20123;-69
2022/09/06 04:11:44;;;;;;;3.08;0.82;;;16.60;57.10;;;;;;4922906;29;20702;-69
2022/09/06 04:14:10;;;;;;;1.48;0.77;;;16.60;57.70;;;;;;4921137;29;20044;-69
2022/09/06 04:16:35;;;;;;;4.03;0.93;;;16.60;56.80;;;;;;4924008;29;20759;-68
2022/09/06 04:19:03;;;;;;;2.85;1.10;;;16.60;56.50;;;;;;4920486;29;20030;-70
2022/09/06 04:21:29;;;;;;;1.60;1.00;;;16.50;57.10;;;;;;4924968;29;20516;-69
2022/09/06 04:23:55;;;;;;;1.67;0.80;;;16.50;58.60;;;;;;4917774;29;20603;-70
2022/09/06 04:26:21;;;;;;;1.75;0.70;;;16.50;57.70;;;;;;4927320;29;20043;-69
2022/09/06 04:28:46;;;;;;;1.10;0.80;;;16.50;57.70;;;;;;4926913;29;20036;-70
2022/09/06 04:31:12;;;;;;;1.95;0.80;;;16.40;58.40;;;;;;4925532;29;20149;-70
2022/09/06 04:33:38;;;;;;;2.33;0.90;;;16.50;58.60;;;;;;4926345;29;20039;-69
2022/09/06 04:36:07;;;;;;;2.35;0.73;;;16.50;58.40;;;;;;4921347;29;20038;-69
2022/09/06 04:38:41;;;;;;;1.98;0.80;;;16.50;57.80;;;;;;4922444;29;20034;-70
2022/09/06 04:41:09;;;;;;;1.13;0.60;;;16.40;58.40;;;;;;4918382;29;20028;-69
2022/09/06 04:43:35;;;;;;;4.28;0.90;;;16.40;58.50;;;;;;4920512;29;20050;-69
2022/09/06 04:46:26;;;;;;;1.95;0.82;;;16.40;58.40;;;;;;4926416;29;20624;-70
2022/09/06 04:48:53;;;;;;;2.70;0.90;;;16.40;58.60;;;;;;4923035;29;20404;-69
2022/09/06 04:51:20;;;;;;;0.85;0.63;;;16.40;58.50;;;;;;4923383;29;20523;-71
2022/09/06 04:53:46;;;;;;;1.67;0.88;;;16.40;58.30;;;;;;4925152;29;20039;-69
2022/09/06 04:56:18;;;;;;;2.53;0.88;;;16.40;58.40;;;;;;4922112;29;20043;-69
2022/09/06 04:58:45;;;;;;;1.23;0.80;;;16.40;59.20;;;;;;4919886;29;20043;-70
2022/09/06 05:01:10;;;;;;;1.13;0.80;;;16.50;59.00;;;;;;4918060;29;20036;-69
2022/09/06 05:03:36;;;;;;;1.25;0.80;;;16.50;59.60;;;;;;4923574;29;20042;-70
2022/09/06 05:06:07;;;;;;;2.25;0.90;;;16.50;59.00;;;;;;4924991;29;20048;-70
2022/09/06 05:08:39;;;;;;;2.72;0.75;;;16.50;59.70;;;;;;4926259;29;20035;-70
2022/09/06 05:11:07;;;;;;;2.22;0.70;;;16.50;59.70;;;;;;4921868;29;20039;-70
2022/09/06 05:13:34;;;;;;;2.22;0.80;;;16.50;60.00;;;;;;4922961;29;20074;-70
2022/09/06 05:16:04;;;;;;;1.35;0.70;;;16.50;59.40;;;;;;4918777;29;20028;-69
2022/09/06 05:18:30;;;;;;;2.05;0.85;;;16.60;60.10;;;;;;4919509;29;20086;-68
2022/09/06 05:20:57;;;;;;;2.50;1.00;;;16.60;59.20;;;;;;4916161;29;20115;-69
2022/09/06 05:23:24;;;;;;;1.35;0.77;;;16.70;59.50;;;;;;4925839;29;20122;-69
2022/09/06 05:25:50;;;;;;;2.15;1.05;;;16.70;59.70;;;;;;4924549;29;20042;-70
2022/09/06 05:28:16;;;;;;;1.83;0.70;;;16.70;59.10;;;;;;4921917;29;20035;-70
2022/09/06 05:30:42;;;;;;;1.98;0.88;;;16.80;59.70;;;;;;4923036;29;20043;-69
2022/09/06 05:33:10;;;;;;;1.60;0.80;;;16.80;59.60;;;;;;4922302;29;20035;-70
2022/09/06 05:35:36;;;;;;;2.55;0.82;;;16.80;59.00;;;;;;4922066;29;20031;-69
2022/09/06 05:38:02;;;;;;;1.30;0.80;;;16.80;59.20;;;;;;4916477;29;20043;-69
2022/09/06 05:40:28;;;;;;;3.22;0.95;;;16.80;59.30;;;;;;4918827;28;20031;-70
2022/09/06 05:42:54;;;;;;;0.80;0.80;;;16.80;59.80;;;;;;4925268;29;20523;-69
2022/09/06 05:45:20;;;;;;;1.88;0.90;;;16.90;60.00;;;;;;4923816;29;20023;-69
2022/09/06 05:47:45;;;;;;;1.58;0.98;;;16.90;59.00;;;;;;4921060;29;20174;-69
2022/09/06 05:50:12;;;;;;;4.25;0.82;;;16.80;58.60;;;;;;4920131;29;20032;-70
2022/09/06 05:52:38;;;;;;;1.70;1.00;;;16.80;59.30;;;;;;4922466;29;20496;-69
2022/09/06 05:55:05;;;;;;;1.20;0.90;;;16.80;59.10;;;;;;4917212;29;20800;-69
2022/09/06 05:57:31;;;;;;;3.55;0.70;;;16.80;59.50;;;;;;4915444;29;20035;-70
2022/09/06 05:59:57;;;;;;;1.42;0.70;;;16.90;60.00;;;;;;4919102;29;20031;-70
2022/09/06 06:02:24;;;;;;;1.80;1.00;;;16.90;59.50;;;;;;4924914;29;20758;-70
2022/09/06 06:04:50;;;;;;;1.10;0.70;;;17.00;59.50;;;;;;4922493;29;20035;-69
2022/09/06 06:07:17;;;;;;;3.92;0.90;;;17.10;60.10;;;;;;4922195;29;20047;-70
2022/09/06 06:09:43;;;;;;;3.35;1.10;;;17.10;59.60;;;;;;4922027;29;20035;-70
2022/09/06 06:12:09;;;;;;;3.75;0.90;;;17.10;58.90;;;;;;4919025;29;20091;-69
2022/09/06 06:14:35;;;;;;;3.40;1.10;;;17.10;59.10;;;;;;4920185;29;20098;-70
2022/09/06 06:17:01;;;;;;;2.75;0.90;;;17.20;59.60;;;;;;4915546;29;20024;-69
2022/09/06 06:19:27;;;;;;;1.65;1.45;;;17.20;59.20;;;;;;4925418;29;20032;-70
2022/09/06 06:21:55;;;;;;;3.05;1.13;;;17.30;59.30;;;;;;4923738;29;20099;-71
2022/09/06 06:24:21;;;;;;;3.15;1.20;;;17.30;59.50;;;;;;4922750;29;20044;-70
2022/09/06 06:26:47;;;;;;;4.47;1.23;;;17.40;59.80;;;;;;4923813;29;20043;-70
2022/09/06 06:29:13;;;;;;;2.83;1.00;;;17.50;57.90;;;;;;4919230;29;20040;-71
2022/09/06 06:31:39;;;;;;;1.35;1.00;;;17.50;58.60;;;;;;4919969;29;20867;-69
2022/09/06 06:34:06;;;;;;;3.10;1.05;;;17.60;58.90;;;;;;4918547;29;20461;-69
2022/09/06 06:36:34;;;;;;;1.23;0.98;;;17.60;58.00;;;;;;4917636;29;20441;-69
2022/09/06 06:39:04;;;;;;;5.70;1.08;;;17.60;57.60;;;;;;4923181;29;20158;-70
2022/09/06 06:41:31;;;;;;;3.20;1.23;;;17.70;57.30;;;;;;4921264;29;20472;-70
2022/09/06 06:43:59;;;;;;;3.97;1.02;;;17.70;57.30;;;;;;4922444;29;20035;-69
2022/09/06 06:46:28;;;;;;;0.82;0.80;;;17.70;58.70;;;;;;4922427;29;20066;-70
2022/09/06 06:48:54;;;;;;;2.25;0.98;;;17.80;58.30;;;;;;4921407;29;20550;-69
2022/09/06 06:51:22;;;;;;;3.50;1.17;;;17.80;58.60;;;;;;4919996;29;20063;-69
2022/09/06 06:53:48;;;;;;;1.90;0.90;;;17.90;58.50;;;;;;4917467;29;20460;-69
2022/09/06 06:56:32;;;;;;;5.57;1.15;;;18.10;57.90;;;;;;4920595;29;20047;-69
2022/09/06 06:59:00;;;;;;;3.08;1.10;;;18.20;58.20;;;;;;4921776;29;20493;-70
2022/09/06 07:01:28;;;;;;;9.10;1.10;;;18.20;57.20;;;;;;4923476;29;20066;-69
2022/09/06 07:03:54;;;;;;;3.58;1.10;;;18.20;56.60;;;;;;4923190;29;20910;-69
2022/09/06 07:06:20;;;;;;;1.90;1.10;;;18.30;57.50;;;;;;4920533;29;20054;-69
2022/09/06 07:08:46;;;;;;;3.03;1.30;;;18.40;58.00;;;;;;4919364;29;20078;-69
2022/09/06 07:11:15;;;;;;;3.38;1.30;;;18.30;57.00;;;;;;4917642;29;20060;-69
2022/09/06 07:13:41;;;;;;;4.65;1.10;;;18.30;57.90;;;;;;4917154;29;20026;-70
2022/09/06 07:16:12;;;;;;;5.25;1.05;;;18.20;57.20;;;;;;4922306;29;20040;-71
2022/09/06 07:18:40;;;;;;;1.98;0.95;;;18.20;58.00;;;;;;4924060;29;20491;-70
2022/09/06 07:21:17;;;;;;;4.45;1.30;;;18.10;57.60;;;;;;4921049;29;20551;-70
2022/09/06 07:23:44;;;;;;;2.40;1.00;;;18.10;57.70;;;;;;4934753;29;20116;-69
2022/09/06 07:26:18;;;;;;;3.25;1.45;;;18.30;57.90;;;;;;4918643;29;20067;-70
2022/09/06 07:28:45;;;;;;;1.23;0.95;;;18.50;58.00;;;;;;4918742;29;20035;-69
2022/09/06 07:31:11;;;;;;;1.67;0.90;;;18.60;57.30;;;;;;4920118;29;20098;-70
2022/09/06 07:33:38;;;;;;;4.82;1.15;;;18.70;57.60;;;;;;4917817;29;20493;-68
2022/09/06 07:36:06;;;;;;;5.30;1.50;;;18.70;58.80;;;;;;4924077;29;20039;-70
2022/09/06 07:38:33;;;;;;;3.63;1.15;;;18.90;57.80;;;;;;4924596;29;20020;-71
2022/09/06 07:41:02;;;;;;;2.20;1.20;;;19.00;57.30;;;;;;4923561;29;20094;-70
2022/09/06 07:43:28;;;;;;;3.88;1.42;;;19.00;57.00;;;;;;4921961;29;20407;-70
2022/09/06 07:46:07;;;;;;;2.67;1.15;;;19.10;56.80;;;;;;4920567;29;20048;-70
2022/09/06 07:48:35;;;;;;;4.70;1.30;;;19.20;57.30;;;;;;4918331;29;20142;-69
2022/09/06 07:51:04;;;;;;;2.45;1.42;;;19.20;56.60;;;;;;4918437;29;20032;-70
2022/09/06 07:53:29;;;;;;;3.08;1.35;;;19.30;56.20;;;;;;4925314;29;20092;-71
2022/09/06 07:55:55;;;;;;;2.15;1.38;;;19.30;57.00;;;;;;4927716;29;20039;-69
2022/09/06 07:58:21;;;;;;;4.00;1.27;;;19.30;56.60;;;;;;4925495;29;20027;-69
2022/09/06 08:00:47;;;;;;;2.10;1.35;;;19.30;56.70;;;;;;4926364;28;20036;-70
2022/09/06 08:03:13;;;;;;;3.60;1.50;;;19.30;57.70;;;;;;4924086;29;20079;-70
2022/09/06 08:05:39;;;;;;;1.27;1.08;;;19.50;57.30;;;;;;4922819;29;20959;-70
2022/09/06 08:08:05;;;;;;;5.28;1.10;;;19.50;55.90;;;;;;4922255;29;20034;-69
2022/09/06 08:10:30;;;;;;;3.63;1.17;;;19.50;56.80;;;;;;4920156;29;20055;-70
2022/09/06 08:12:56;;;;;;;3.45;1.25;;;19.60;57.50;;;;;;4928079;29;20027;-70
2022/09/06 08:15:22;;;;;;;1.83;1.13;;;19.80;57.30;;;;;;4926754;29;20055;-70
2022/09/06 08:17:49;;;;;;;2.40;1.15;;;19.70;56.40;;;;;;4925899;29;20027;-70
2022/09/06 08:20:16;;;;;;;3.58;1.65;;;19.80;56.60;;;;;;4922888;29;20649;-70
2022/09/06 08:22:42;;;;;;;1.60;1.42;;;19.90;56.30;;;;;;4923795;29;20051;-70
2022/09/06 08:25:09;;;;;;;2.90;1.42;;;19.90;56.00;;;;;;4920144;29;20036;-69
2022/09/06 08:27:35;;;;;;;3.20;1.58;;;20.00;56.40;;;;;;4921170;29;20126;-69
2022/09/06 08:30:01;;;;;;;8.00;1.45;;;20.00;56.70;;;;;;4925224;29;20031;-70
2022/09/06 08:32:27;;;;;;;6.57;1.60;;;20.10;56.20;;;;;;4927514;29;20035;-68
2022/09/06 08:34:53;;;;;;;4.22;1.73;;;20.20;56.70;;;;;;4926653;29;20032;-69
2022/09/06 08:37:18;;;;;;;4.68;1.40;;;20.30;56.70;;;;;;4924447;29;20504;-69
2022/09/06 08:39:44;;;;;;;4.72;1.60;;;20.40;56.90;;;;;;4923915;29;20060;-69
2022/09/06 08:42:11;;;;;;;3.60;1.65;;;20.50;57.20;;;;;;4920947;29;20465;-69
2022/09/06 08:44:39;;;;;;;4.05;1.55;;;20.50;56.00;;;;;;4922233;29;20032;-69
2022/09/06 08:47:12;;;;;;;4.22;1.30;;;20.50;55.50;;;;;;4917905;29;20131;-69
2022/09/06 08:49:51;;;;;;;3.90;1.73;;;20.50;56.90;;;;;;4923492;29;20028;-68
2022/09/06 08:52:39;;;;;;;2.92;1.65;;;20.60;56.00;;;;;;4926128;29;20028;-69
2022/09/06 08:55:35;;;;;;;5.05;1.75;;;20.50;56.10;;;;;;4923375;29;20043;-69
2022/09/06 08:58:24;;;;;;;5.75;1.45;;;20.50;55.40;;;;;;4922046;29;20028;-69
2022/09/06 09:00:57;;;;;;;3.13;1.83;;;20.60;55.70;;;;;;4920745;29;20039;-70
2022/09/06 09:03:33;;;;;;;4.63;1.70;;;20.70;55.30;;;;;;4926209;29;20035;-68
2022/09/06 09:06:02;;;;;;;3.35;1.80;;;20.80;56.60;;;;;;4916977;29;20465;-69
2022/09/06 09:08:37;;;;;;;4.70;1.73;;;20.80;55.50;;;;;;4919655;29;20086;-68
2022/09/06 09:11:06;;;;;;;4.75;1.60;;;21.00;56.10;;;;;;4924541;29;20078;-69
2022/09/06 09:13:51;;;;;;;3.75;1.85;;;21.00;55.70;;;;;;4924925;29;20035;-70
2022/09/06 09:16:18;;;;;;;4.07;1.30;;;21.00;55.50;;;;;;4922668;29;20040;-68
2022/09/06 09:19:04;;;;;;;2.40;1.67;;;20.90;56.40;;;;;;4922182;29;20027;-69
2022/09/06 09:21:36;;;;;;;5.63;1.98;;;20.90;56.60;;;;;;4921688;29;20023;-69
2022/09/06 09:24:08;;;;;;;2.78;1.70;;;20.80;55.30;;;;;;4917424;29;20060;-69
2022/09/06 09:26:43;;;;;;;3.28;2.00;;;20.80;56.00;;;;;;4924176;29;20796;-69
2022/09/06 09:29:11;;;;;;;6.82;2.10;;;20.80;56.30;;;;;;4925432;29;20402;-69
2022/09/06 09:31:40;;;;;;;7.18;1.88;;;20.80;56.70;;;;;;4924890;29;20252;-68
2022/09/06 09:34:12;;;;;;;3.22;1.83;;;20.90;56.70;;;;;;4922118;29;20484;-69
2022/09/06 09:36:38;;;;;;;8.23;2.03;;;21.00;55.50;;;;;;4922881;28;20031;-70
2022/09/06 09:39:11;;;;;;;4.53;2.10;;;21.00;55.60;;;;;;4919016;29;20074;-70
2022/09/06 09:41:41;;;;;;;3.97;1.92;;;21.00;56.40;;;;;;4916310;29;20035;-68
2022/09/06 09:44:16;;;;;;;6.43;1.90;;;21.00;56.20;;;;;;4919346;29;20116;-70
2022/09/06 09:46:42;;;;;;;2.47;2.08;;;21.00;56.50;;;;;;4922690;29;20062;-68
2022/09/06 09:49:35;;;;;;;2.53;1.60;;;21.10;57.20;;;;;;4924035;29;20071;-69
2022/09/06 09:52:09;;;;;;;8.68;1.77;;;21.10;57.50;;;;;;4922590;29;20044;-68
2022/09/06 09:54:38;;;;;;;4.93;2.03;;;21.20;56.00;;;;;;4922657;29;20046;-69
2022/09/06 09:57:09;;;;;;;5.35;1.92;;;21.20;55.80;;;;;;4919079;29;20039;-68
2022/09/06 09:59:35;;;;;;;6.15;1.90;;;21.10;56.50;;;;;;4923481;29;20039;-69
2022/09/06 10:02:17;;;;;;;1.83;1.60;;;21.10;57.20;;;;;;4916384;29;20076;-68
2022/09/06 10:04:48;;;;;;;2.58;2.00;;;21.10;57.20;;;;;;4920623;29;20047;-69
2022/09/06 10:07:18;;;;;;;5.07;2.28;;;21.30;57.10;;;;;;4924248;29;20086;-69
2022/09/06 10:09:56;;;;;;;5.95;2.05;;;21.40;56.00;;;;;;4923678;29;20031;-68
2022/09/06 10:12:31;;;;;;;6.93;2.38;;;21.40;56.80;;;;;;4921270;29;20039;-68
2022/09/06 10:14:57;;;;;;;2.83;1.90;;;21.50;57.90;;;;;;4920354;29;20054;-69
2022/09/06 10:17:33;;;;;;;6.40;2.30;;;21.50;56.20;;;;;;4920312;29;20106;-68
2022/09/06 10:20:11;;;;;;;2.27;1.80;;;21.50;56.60;;;;;;4916912;29;20036;-69
2022/09/06 10:22:50;;;;;;;3.35;1.95;;;21.60;57.90;;;;;;4919418;29;20035;-70
2022/09/06 10:25:38;;;;;;;4.10;1.95;;;21.80;57.40;;;;;;4924031;29;20798;-68
2022/09/06 10:28:26;;;;;;;3.20;1.90;;;22.00;55.80;;;;;;4921707;29;20047;-69
2022/09/06 10:31:07;;;;;;;3.28;1.85;;;22.10;56.30;;;;;;4918660;29;20138;-70
2022/09/06 10:34:08;;;;;;;4.47;1.98;;;22.30;55.60;;;;;;4921368;29;20069;-69
2022/09/06 10:36:47;;;;;;;4.82;2.03;;;22.30;55.20;;;;;;4920687;29;20095;-71
2022/09/06 10:39:42;;;;;;;5.35;2.10;;;22.50;55.10;;;;;;4918078;29;20760;-68
2022/09/06 10:42:37;;;;;;;4.70;2.47;;;22.60;56.20;;;;;;4920413;29;20040;-70
2022/09/06 10:45:35;;;;;;;4.63;2.53;;;22.70;54.40;;;;;;4922079;29;20039;-70
2022/09/06 10:48:21;;;;;;;5.72;2.25;;;22.80;54.90;;;;;;4921013;29;20093;-70
2022/09/06 10:51:10;;;;;;;;;;;22.80;53.90;;;;;;4920420;29;20122;-68
2022/09/06 10:54:08;;;;;;;6.18;2.22;;;22.60;55.00;;;;;;4920359;28;19944;-69
2022/09/06 10:56:40;;;;;;;11.32;2.45;;;22.40;55.50;;;;;;4919436;29;20091;-69
2022/09/06 10:59:21;;;;;;;8.60;3.00;;;22.50;56.30;;;;;;4914719;29;20503;-69
2022/09/06 11:02:29;;;;;;;6.53;2.25;;;22.50;56.60;;;;;;4921098;29;20114;-69
2022/09/06 11:04:57;;;;;;;;;;;22.60;56.10;;;;;;4923069;29;20040;-68
2022/09/06 11:07:35;;;;;;;3.05;2.42;;;22.50;55.80;;;;;;4922833;29;19915;-70
2022/09/06 11:10:16;;;;;;;6.13;2.30;;;22.40;55.70;;;;;;4919725;29;20404;-68
2022/09/06 11:13:00;;;;;;;4.05;2.70;;;22.40;56.30;;;;;;4919692;29;20042;-70
2022/09/06 11:15:32;;;;;;;3.95;2.60;;;22.40;56.20;;;;;;4917658;29;20035;-69
2022/09/06 11:18:04;;;;;;;3.47;2.20;;;22.40;56.60;;;;;;4915335;29;20075;-68
2022/09/06 11:20:48;;;;;;;4.95;2.40;;;22.50;56.80;;;;;;4921625;29;20027;-68
2022/09/06 11:23:47;;;;;;;3.88;2.47;;;22.60;56.40;;;;;;4922993;29;20036;-68
2022/09/06 11:26:30;;;;;;;3.38;2.20;;;22.60;55.70;;;;;;4922259;29;20127;-70
2022/09/06 11:29:01;;;;;;;4.65;2.40;;;22.70;55.50;;;;;;4919763;29;20064;-69
2022/09/06 11:31:31;;;;;;;4.22;2.33;;;22.70;56.30;;;;;;4920441;29;20484;-69
2022/09/06 11:34:24;;;;;;;3.60;2.33;;;22.60;54.80;;;;;;4917476;29;20048;-69
2022/09/06 11:37:00;;;;;;;3.10;2.40;;;22.60;55.40;;;;;;4918867;29;20035;-69
2022/09/06 11:39:37;;;;;;;3.70;2.45;;;22.70;57.50;;;;;;4925098;29;20037;-68
2022/09/06 11:42:44;;;;;;;3.45;2.33;;;22.70;55.70;;;;;;4923950;29;20044;-69
2022/09/06 11:45:10;;;;;;;4.78;2.25;;;22.70;55.50;;;;;;4918781;29;20043;-70
2022/09/06 11:47:40;;;;;;;4.18;2.13;;;22.60;55.20;;;;;;4921341;29;20063;-68
2022/09/06 11:50:23;;;;;;;4.68;2.55;;;22.50;56.10;;;;;;4917099;29;20079;-69
2022/09/06 11:53:01;;;;;;;6.75;2.15;;;22.60;56.10;;;;;;4918716;29;20058;-69
2022/09/06 11:55:49;;;;;;;3.20;2.40;;;22.60;55.80;;;;;;4917472;29;20087;-69
2022/09/06 11:58:52;;;;;;;6.13;2.60;;;22.60;55.60;;;;;;4915860;29;20051;-69
2022/09/06 12:01:19;;;;;;;3.17;2.15;;;22.70;56.10;;;;;;4911288;29;20234;-70
2022/09/06 12:03:48;;;;;;;7.53;2.40;;;22.70;55.00;;;;;;4922861;29;20086;-69
2022/09/06 12:06:16;;;;;;;4.10;2.33;;;22.60;54.90;;;;;;4918920;29;20039;-69
2022/09/06 12:08:42;;;;;;;3.83;2.30;;;22.70;54.50;;;;;;4918779;29;20059;-69
2022/09/06 12:11:35;;;;;;;4.35;2.80;;;22.80;56.00;;;;;;4916514;29;20111;-69
2022/09/06 12:14:21;;;;;;;4.43;2.50;;;23.00;56.50;;;;;;4914755;29;20127;-69
2022/09/06 12:16:56;;;;;;;3.83;2.42;;;23.00;55.40;;;;;;4919150;29;20043;-69
2022/09/06 12:20:05;;;;;;;4.50;1.90;;;23.10;54.70;;;;;;4921548;29;20036;-69
2022/09/06 12:22:40;;;;;;;5.15;2.90;;;23.20;55.30;;;;;;4920268;29;20349;-69
2022/09/06 12:25:34;;;;;;;4.20;2.58;;;23.30;55.20;;;;;;4919548;29;20127;-69
2022/09/06 12:28:03;;;;;;;4.50;2.42;;;23.30;54.80;;;;;;4917616;29;20893;-69
2022/09/06 12:30:42;;;;;;;4.78;2.65;;;23.30;54.90;;;;;;4918559;29;20027;-69
2022/09/06 12:33:29;;;;;;;4.78;2.67;;;23.50;54.70;;;;;;4915168;29;20042;-69
2022/09/06 12:36:15;;;;;;;4.68;2.80;;;23.70;54.10;;;;;;4918454;29;20050;-70
2022/09/06 12:38:57;;;;;;;4.25;2.70;;;23.60;54.50;;;;;;4921264;29;20028;-71
2022/09/06 12:41:26;;;;;;;4.28;3.05;;;23.70;54.70;;;;;;4924378;29;20562;-70
2022/09/06 12:43:54;;;;;;;4.93;3.00;;;23.80;54.00;;;;;;4923302;29;20040;-70
2022/09/06 12:46:23;;;;;;;3.80;2.40;;;24.00;53.80;;;;;;4922498;29;20126;-70
2022/09/06 12:49:04;;;;;;;3.65;2.58;;;24.20;54.00;;;;;;4920771;29;20031;-69
2022/09/06 12:51:31;;;;;;;8.85;3.30;;;24.20;53.30;;;;;;4920723;29;20578;-70
2022/09/06 12:54:00;;;;;;;11.07;3.17;;;24.40;53.00;;;;;;4924509;29;20504;-71
2022/09/06 12:56:28;;;;;;;6.60;3.13;;;24.40;52.60;;;;;;4924010;29;20024;-70
2022/09/06 12:59:15;;;;;;;7.57;2.50;;;24.40;52.90;;;;;;4925154;29;20699;-70
2022/09/06 13:02:08;;;;;;;3.80;2.70;;;24.40;52.30;;;;;;4921257;29;20027;-71
2022/09/06 13:04:46;;;;;;;7.85;2.70;;;24.30;52.30;;;;;;4920016;29;20773;-70
2022/09/06 13:07:17;;;;;;;5.53;2.95;;;24.50;53.20;;;;;;4920443;29;20032;-70
2022/09/06 13:09:46;;;;;;;4.78;3.10;;;24.50;52.30;;;;;;4922749;29;20035;-70
2022/09/06 13:12:35;;;;;;;3.88;2.70;;;24.50;53.10;;;;;;4918401;29;20127;-70